Artesian, Iowa
Current Conditions -  °F | °C
As of 7:54 AM on Thursday 30 Oct 2014 (Local Time) from KALO Reporting Station
Broken Clouds Broken Clouds  
Wind Chill: 35°   Ceiling: 10000
Heat Index: 39°   Visibility: 10mi
Dew Point: 34°   Wind: 6mph
Humidity: 82%   Direction: 120°ESE
Pressure: 30.05"   Gusts: NA
Location:  42.787°N, 92.4284°W
Report Text: KALO 301254Z 12005KT 10SM BKN100 04/01 A3005 RMK AO2 SLP182 T00390011
Loading
Personal Weather Stations






























Interactive Weather Map New forecast layout! Learn more

10-Day Weather Forecast

Advertisements
Track Severe Weather on mobile